VAG639 VVNB-VVDN
Flight info
| Callsign | VAG639 |
|---|---|
| Flight time | 0h 53m |
| Altitude | 34000 |
| Route | NAH3A NAH Q1 CAHEO CAHEO1L |
| Aircraft | A321/M-SDE3FGHIRWY/LB1 |
Departure
| Time | 2026-05-04 23:57 |
|---|---|
| Airport | Noi Bai International Airport (VVNB) |
Arrival
| Time | 2026-05-05 00:50 |
|---|---|
| Airport | Da Nang International Airport (VVDN) |
| Time | Latitude | Longitude | Altitude | Speed | Heading |
|---|---|---|---|---|---|
| 2026-05-04 23:54 | 21.21936 | 105.79472 | 45 ft | 7 kts | 257° |
| 2026-05-04 23:54 | 21.21940 | 105.79483 | 46 ft | 10 kts | 289° |
| 2026-05-04 23:55 | 21.21993 | 105.79326 | 49 ft | 34 kts | 291° |
| 2026-05-04 23:55 | 21.22074 | 105.79084 | 49 ft | 34 kts | 288° |
| 2026-05-04 23:55 | 21.22200 | 105.78658 | 47 ft | 14 kts | 302° |
| 2026-05-04 23:56 | 21.22293 | 105.78628 | 49 ft | 21 kts | 329° |
| 2026-05-04 23:56 | 21.22439 | 105.78656 | 50 ft | 20 kts | 56° |
| 2026-05-04 23:56 | 21.22383 | 105.78941 | 48 ft | 78 kts | 107° |
| 2026-05-04 23:56 | 21.22147 | 105.79756 | 48 ft | 148 kts | 107° |
| 2026-05-04 23:57 | 21.21793 | 105.80988 | 308 ft | 182 kts | 106° |
| 2026-05-04 23:57 | 21.21425 | 105.82271 | 1221 ft | 181 kts | 107° |
| 2026-05-04 23:57 | 21.21056 | 105.83616 | 1848 ft | 198 kts | 107° |
| 2026-05-04 23:57 | 21.20653 | 105.85090 | 2126 ft | 215 kts | 107° |
| 2026-05-04 23:58 | 21.20211 | 105.86700 | 2248 ft | 241 kts | 107° |
| 2026-05-04 23:58 | 21.19717 | 105.88490 | 2622 ft | 257 kts | 107° |
| 2026-05-04 23:58 | 21.19203 | 105.90347 | 3290 ft | 262 kts | 107° |
| 2026-05-04 23:58 | 21.18681 | 105.92228 | 3959 ft | 266 kts | 107° |
| 2026-05-04 23:59 | 21.18151 | 105.94143 | 4635 ft | 270 kts | 106° |
| 2026-05-04 23:59 | 21.17595 | 105.96079 | 5272 ft | 274 kts | 112° |
| 2026-05-04 23:59 | 21.16613 | 105.97842 | 5871 ft | 279 kts | 133° |
| 2026-05-04 23:59 | 21.15100 | 105.99140 | 6496 ft | 281 kts | 154° |
| 2026-05-05 00:00 | 21.13271 | 105.99795 | 7071 ft | 283 kts | 173° |
| 2026-05-05 00:00 | 21.12612 | 105.99895 | 7269 ft | 284 kts | 173° |
| 2026-05-05 00:00 | 21.09319 | 106.00382 | 8279 ft | 290 kts | 173° |
| 2026-05-05 00:00 | 21.07304 | 106.00689 | 8868 ft | 294 kts | 174° |
| 2026-05-05 00:01 | 21.05260 | 106.01003 | 9462 ft | 298 kts | 174° |
| 2026-05-05 00:01 | 21.03195 | 106.01322 | 10036 ft | 302 kts | 174° |
| 2026-05-05 00:01 | 21.01073 | 106.01648 | 10291 ft | 318 kts | 174° |
| 2026-05-05 00:01 | 20.98817 | 106.01991 | 10416 ft | 337 kts | 174° |
| 2026-05-05 00:02 | 20.96430 | 106.02353 | 10583 ft | 353 kts | 174° |
| 2026-05-05 00:02 | 20.93971 | 106.02727 | 11009 ft | 360 kts | 174° |
| 2026-05-05 00:02 | 20.91482 | 106.03110 | 11521 ft | 363 kts | 174° |
| 2026-05-05 00:02 | 20.88972 | 106.03498 | 12040 ft | 366 kts | 174° |
| 2026-05-05 00:03 | 20.86439 | 106.03886 | 12569 ft | 369 kts | 174° |
| 2026-05-05 00:03 | 20.83885 | 106.04277 | 13071 ft | 372 kts | 174° |
| 2026-05-05 00:03 | 20.81299 | 106.04675 | 13589 ft | 375 kts | 174° |
| 2026-05-05 00:03 | 20.78706 | 106.05073 | 14065 ft | 378 kts | 174° |
| 2026-05-05 00:04 | 20.76087 | 106.05472 | 14525 ft | 381 kts | 174° |
| 2026-05-05 00:04 | 20.73491 | 106.05864 | 14982 ft | 384 kts | 174° |
| 2026-05-05 00:04 | 20.70836 | 106.06266 | 15446 ft | 386 kts | 175° |
| 2026-05-05 00:04 | 20.68162 | 106.06673 | 15914 ft | 388 kts | 174° |
| 2026-05-05 00:05 | 20.65483 | 106.07083 | 16372 ft | 390 kts | 175° |
| 2026-05-05 00:05 | 20.62785 | 106.07496 | 16835 ft | 393 kts | 175° |
| 2026-05-05 00:05 | 20.60070 | 106.07910 | 17284 ft | 395 kts | 175° |
| 2026-05-05 00:05 | 20.57338 | 106.08327 | 17737 ft | 398 kts | 175° |
| 2026-05-05 00:06 | 20.54594 | 106.08783 | 18186 ft | 401 kts | 174° |
| 2026-05-05 00:06 | 20.51833 | 106.09286 | 18580 ft | 404 kts | 173° |
| 2026-05-05 00:06 | 20.49056 | 106.09813 | 18966 ft | 406 kts | 173° |
| 2026-05-05 00:06 | 20.46266 | 106.10352 | 19346 ft | 409 kts | 173° |
| 2026-05-05 00:07 | 20.43457 | 106.10891 | 19733 ft | 411 kts | 173° |
| 2026-05-05 00:07 | 20.40636 | 106.11428 | 20118 ft | 414 kts | 172° |
| 2026-05-05 00:07 | 20.37841 | 106.12262 | 20488 ft | 420 kts | 162° |
| 2026-05-05 00:07 | 20.35154 | 106.13550 | 20864 ft | 424 kts | 158° |
| 2026-05-05 00:08 | 20.32477 | 106.14899 | 21238 ft | 427 kts | 158° |
| 2026-05-05 00:08 | 20.29783 | 106.16251 | 21599 ft | 429 kts | 158° |
| 2026-05-05 00:08 | 20.27109 | 106.17589 | 21947 ft | 431 kts | 158° |
| 2026-05-05 00:08 | 20.24379 | 106.18952 | 22293 ft | 434 kts | 158° |
| 2026-05-05 00:09 | 20.21640 | 106.20320 | 22626 ft | 436 kts | 158° |
| 2026-05-05 00:09 | 20.18884 | 106.21697 | 22943 ft | 439 kts | 158° |
| 2026-05-05 00:09 | 20.16115 | 106.23079 | 23264 ft | 441 kts | 158° |
| 2026-05-05 00:09 | 20.13328 | 106.24467 | 23571 ft | 443 kts | 158° |
| 2026-05-05 00:10 | 20.10532 | 106.25862 | 23825 ft | 445 kts | 158° |
| 2026-05-05 00:10 | 20.07714 | 106.27268 | 24078 ft | 448 kts | 158° |
| 2026-05-05 00:10 | 20.04891 | 106.28677 | 24339 ft | 450 kts | 158° |
| 2026-05-05 00:10 | 20.02042 | 106.30097 | 24449 ft | 455 kts | 158° |
| 2026-05-05 00:11 | 19.99149 | 106.31539 | 24566 ft | 461 kts | 158° |
| 2026-05-05 00:11 | 19.96227 | 106.32996 | 24672 ft | 466 kts | 158° |
| 2026-05-05 00:11 | 19.93269 | 106.34469 | 24785 ft | 472 kts | 158° |
| 2026-05-05 00:11 | 19.90278 | 106.35955 | 24894 ft | 477 kts | 158° |
| 2026-05-05 00:12 | 19.87260 | 106.37451 | 24998 ft | 481 kts | 158° |
| 2026-05-05 00:12 | 19.84213 | 106.38961 | 25122 ft | 486 kts | 158° |
| 2026-05-05 00:12 | 19.81137 | 106.40489 | 25229 ft | 490 kts | 158° |
| 2026-05-05 00:12 | 19.78040 | 106.42026 | 25345 ft | 494 kts | 158° |
| 2026-05-05 00:13 | 19.74917 | 106.43580 | 25461 ft | 498 kts | 158° |
| 2026-05-05 00:13 | 19.71769 | 106.45147 | 25606 ft | 501 kts | 158° |
| 2026-05-05 00:13 | 19.68650 | 106.46697 | 25825 ft | 502 kts | 157° |
| 2026-05-05 00:13 | 19.65488 | 106.48265 | 26090 ft | 502 kts | 157° |
| 2026-05-05 00:14 | 19.62329 | 106.49828 | 26354 ft | 501 kts | 158° |
| 2026-05-05 00:14 | 19.59166 | 106.51392 | 26620 ft | 501 kts | 158° |
| 2026-05-05 00:14 | 19.56005 | 106.52957 | 26881 ft | 501 kts | 157° |
| 2026-05-05 00:14 | 19.52828 | 106.54531 | 27146 ft | 501 kts | 158° |
| 2026-05-05 00:15 | 19.50739 | 106.55566 | 27321 ft | 501 kts | 158° |
| 2026-05-05 00:15 | 19.47583 | 106.57128 | 27584 ft | 501 kts | 158° |
| 2026-05-05 00:15 | 19.44417 | 106.58695 | 27851 ft | 501 kts | 158° |
| 2026-05-05 00:15 | 19.41256 | 106.60258 | 28120 ft | 501 kts | 158° |
| 2026-05-05 00:16 | 19.38100 | 106.61817 | 28389 ft | 501 kts | 158° |
| 2026-05-05 00:16 | 19.34940 | 106.63375 | 28647 ft | 501 kts | 157° |
| 2026-05-05 00:16 | 19.31785 | 106.64931 | 28952 ft | 500 kts | 157° |
| 2026-05-05 00:16 | 19.28634 | 106.66487 | 29230 ft | 499 kts | 157° |
| 2026-05-05 00:17 | 19.25482 | 106.68039 | 29497 ft | 499 kts | 157° |
| 2026-05-05 00:17 | 19.22335 | 106.69590 | 29758 ft | 499 kts | 158° |
| 2026-05-05 00:17 | 19.19171 | 106.71119 | 30007 ft | 499 kts | 158° |
| 2026-05-05 00:17 | 19.15995 | 106.72616 | 30219 ft | 500 kts | 159° |
| 2026-05-05 00:18 | 19.12810 | 106.74092 | 30426 ft | 500 kts | 159° |
| 2026-05-05 00:18 | 19.09666 | 106.75539 | 30657 ft | 499 kts | 159° |
| 2026-05-05 00:18 | 19.06482 | 106.77008 | 30885 ft | 499 kts | 159° |
| 2026-05-05 00:18 | 19.03305 | 106.78487 | 31108 ft | 499 kts | 159° |
| 2026-05-05 00:19 | 19.00131 | 106.79971 | 31341 ft | 498 kts | 159° |
| 2026-05-05 00:19 | 18.96967 | 106.81453 | 31618 ft | 497 kts | 159° |
| 2026-05-05 00:19 | 18.93804 | 106.82935 | 31869 ft | 496 kts | 159° |
| 2026-05-05 00:19 | 18.90648 | 106.84415 | 32108 ft | 495 kts | 159° |
| 2026-05-05 00:20 | 18.87497 | 106.85889 | 32345 ft | 495 kts | 159° |
| 2026-05-05 00:20 | 18.84346 | 106.87366 | 32571 ft | 495 kts | 159° |
| 2026-05-05 00:20 | 18.81205 | 106.88835 | 32800 ft | 494 kts | 159° |
| 2026-05-05 00:20 | 18.78059 | 106.90301 | 33028 ft | 494 kts | 159° |
| 2026-05-05 00:21 | 18.74919 | 106.91763 | 33252 ft | 493 kts | 160° |
| 2026-05-05 00:21 | 18.71778 | 106.93226 | 33461 ft | 493 kts | 160° |
| 2026-05-05 00:21 | 18.68639 | 106.94685 | 33692 ft | 493 kts | 160° |
| 2026-05-05 00:21 | 18.65501 | 106.96143 | 33918 ft | 492 kts | 159° |
| 2026-05-05 00:22 | 18.62402 | 106.97582 | 33985 ft | 494 kts | 159° |
| 2026-05-05 00:22 | 18.56081 | 107.00520 | 34006 ft | 498 kts | 159° |
| 2026-05-05 00:23 | 18.49733 | 107.03474 | 34002 ft | 499 kts | 159° |
| 2026-05-05 00:23 | 18.43380 | 107.06427 | 33995 ft | 499 kts | 159° |
| 2026-05-05 00:24 | 18.37023 | 107.09380 | 34002 ft | 499 kts | 159° |
| 2026-05-05 00:24 | 18.30664 | 107.12330 | 34000 ft | 499 kts | 159° |
| 2026-05-05 00:25 | 18.24309 | 107.15284 | 34007 ft | 499 kts | 159° |
| 2026-05-05 00:25 | 18.17946 | 107.18240 | 34014 ft | 499 kts | 159° |
| 2026-05-05 00:26 | 18.11588 | 107.21179 | 34014 ft | 499 kts | 159° |
| 2026-05-05 00:26 | 18.05230 | 107.24122 | 34014 ft | 499 kts | 159° |
| 2026-05-05 00:27 | 17.98900 | 107.27115 | 34013 ft | 499 kts | 158° |
| 2026-05-05 00:27 | 17.92622 | 107.30124 | 34012 ft | 499 kts | 158° |
| 2026-05-05 00:28 | 17.86305 | 107.33141 | 34006 ft | 499 kts | 158° |
| 2026-05-05 00:28 | 17.79971 | 107.36142 | 34008 ft | 499 kts | 158° |
| 2026-05-05 00:29 | 17.73648 | 107.39134 | 34011 ft | 499 kts | 158° |
| 2026-05-05 00:29 | 17.67320 | 107.42135 | 34008 ft | 498 kts | 158° |
| 2026-05-05 00:30 | 17.61007 | 107.45129 | 34007 ft | 498 kts | 158° |
| 2026-05-05 00:30 | 17.54688 | 107.48116 | 34014 ft | 498 kts | 158° |
| 2026-05-05 00:31 | 17.48380 | 107.51088 | 34010 ft | 498 kts | 158° |
| 2026-05-05 00:31 | 17.42064 | 107.54070 | 34012 ft | 498 kts | 158° |
| 2026-05-05 00:32 | 17.35752 | 107.57045 | 34014 ft | 497 kts | 158° |
| 2026-05-05 00:32 | 17.29442 | 107.60022 | 34002 ft | 497 kts | 158° |
| 2026-05-05 00:33 | 17.23140 | 107.62989 | 34012 ft | 497 kts | 158° |
| 2026-05-05 00:33 | 17.16880 | 107.65936 | 33622 ft | 496 kts | 158° |
| 2026-05-05 00:33 | 17.13721 | 107.67423 | 32729 ft | 499 kts | 158° |
| 2026-05-05 00:34 | 17.10548 | 107.68923 | 31894 ft | 502 kts | 158° |
| 2026-05-05 00:34 | 17.07367 | 107.70450 | 31073 ft | 503 kts | 157° |
| 2026-05-05 00:34 | 17.04193 | 107.71997 | 30259 ft | 505 kts | 157° |
| 2026-05-05 00:34 | 17.01006 | 107.73561 | 29324 ft | 506 kts | 157° |
| 2026-05-05 00:35 | 16.97817 | 107.75127 | 28352 ft | 507 kts | 157° |
| 2026-05-05 00:35 | 16.94619 | 107.76690 | 27366 ft | 508 kts | 157° |
| 2026-05-05 00:35 | 16.91406 | 107.78253 | 26385 ft | 509 kts | 157° |
| 2026-05-05 00:35 | 16.88193 | 107.79810 | 25397 ft | 510 kts | 157° |
| 2026-05-05 00:36 | 16.84967 | 107.81368 | 24424 ft | 511 kts | 157° |
| 2026-05-05 00:36 | 16.81755 | 107.82917 | 23724 ft | 505 kts | 157° |
| 2026-05-05 00:36 | 16.78586 | 107.84449 | 22983 ft | 499 kts | 157° |
| 2026-05-05 00:36 | 16.75450 | 107.85966 | 22256 ft | 493 kts | 156° |
| 2026-05-05 00:37 | 16.72357 | 107.87463 | 21539 ft | 487 kts | 156° |
| 2026-05-05 00:37 | 16.69299 | 107.88942 | 20808 ft | 481 kts | 156° |
| 2026-05-05 00:37 | 16.66282 | 107.90400 | 20103 ft | 475 kts | 156° |
| 2026-05-05 00:37 | 16.63300 | 107.91845 | 19434 ft | 470 kts | 156° |
| 2026-05-05 00:38 | 16.60352 | 107.93275 | 18803 ft | 465 kts | 156° |
| 2026-05-05 00:38 | 16.57437 | 107.94687 | 18159 ft | 459 kts | 156° |
| 2026-05-05 00:38 | 16.54549 | 107.96054 | 17389 ft | 453 kts | 159° |
| 2026-05-05 00:38 | 16.51600 | 107.96997 | 16664 ft | 447 kts | 168° |
| 2026-05-05 00:39 | 16.48573 | 107.97670 | 15905 ft | 442 kts | 168° |
| 2026-05-05 00:39 | 16.45569 | 107.98341 | 15182 ft | 438 kts | 168° |
| 2026-05-05 00:39 | 16.42607 | 107.99009 | 14499 ft | 435 kts | 168° |
| 2026-05-05 00:39 | 16.39659 | 107.99677 | 13847 ft | 431 kts | 168° |
| 2026-05-05 00:40 | 16.36742 | 108.00339 | 13185 ft | 427 kts | 168° |
| 2026-05-05 00:40 | 16.33888 | 108.00986 | 12996 ft | 412 kts | 168° |
| 2026-05-05 00:40 | 16.31145 | 108.01609 | 12864 ft | 395 kts | 168° |
| 2026-05-05 00:40 | 16.28495 | 108.02210 | 12517 ft | 385 kts | 168° |
| 2026-05-05 00:41 | 16.25899 | 108.02798 | 12027 ft | 380 kts | 168° |
| 2026-05-05 00:41 | 16.23327 | 108.03379 | 11492 ft | 376 kts | 168° |
| 2026-05-05 00:41 | 16.20774 | 108.03954 | 10942 ft | 374 kts | 167° |
| 2026-05-05 00:41 | 16.18236 | 108.04523 | 10420 ft | 371 kts | 167° |
| 2026-05-05 00:42 | 16.15755 | 108.05079 | 10154 ft | 366 kts | 167° |
| 2026-05-05 00:42 | 16.13309 | 108.05627 | 10017 ft | 352 kts | 167° |
| 2026-05-05 00:42 | 16.10946 | 108.06158 | 9616 ft | 347 kts | 167° |
| 2026-05-05 00:42 | 16.08552 | 108.06697 | 8688 ft | 358 kts | 167° |
| 2026-05-05 00:43 | 16.06103 | 108.07249 | 8110 ft | 357 kts | 167° |
| 2026-05-05 00:43 | 16.03758 | 108.07772 | 7946 ft | 329 kts | 167° |
| 2026-05-05 00:43 | 16.01623 | 108.08238 | 7825 ft | 301 kts | 168° |
| 2026-05-05 00:43 | 15.99552 | 108.08602 | 7344 ft | 304 kts | 171° |
| 2026-05-05 00:44 | 15.97448 | 108.08905 | 6868 ft | 307 kts | 172° |
| 2026-05-05 00:44 | 15.95322 | 108.09187 | 6397 ft | 309 kts | 172° |
| 2026-05-05 00:44 | 15.93197 | 108.09464 | 5893 ft | 303 kts | 172° |
| 2026-05-05 00:44 | 15.91156 | 108.09735 | 5459 ft | 288 kts | 171° |
| 2026-05-05 00:45 | 15.89222 | 108.09996 | 5035 ft | 274 kts | 171° |
| 2026-05-05 00:45 | 15.87430 | 108.10417 | 4824 ft | 255 kts | 151° |
| 2026-05-05 00:45 | 15.86195 | 108.11609 | 4748 ft | 237 kts | 117° |
| 2026-05-05 00:45 | 15.85854 | 108.13232 | 4367 ft | 232 kts | 83° |
| 2026-05-05 00:46 | 15.86101 | 108.14877 | 4030 ft | 229 kts | 80° |
| 2026-05-05 00:46 | 15.86351 | 108.16497 | 3708 ft | 226 kts | 80° |
| 2026-05-05 00:46 | 15.86593 | 108.18104 | 3391 ft | 224 kts | 80° |
| 2026-05-05 00:46 | 15.86833 | 108.19700 | 3073 ft | 222 kts | 80° |
| 2026-05-05 00:47 | 15.87262 | 108.21218 | 2757 ft | 218 kts | 54° |
| 2026-05-05 00:47 | 15.88431 | 108.22150 | 2477 ft | 214 kts | 15° |
| 2026-05-05 00:47 | 15.89905 | 108.22131 | 2294 ft | 216 kts | 348° |
| 2026-05-05 00:47 | 15.91367 | 108.21855 | 2087 ft | 217 kts | 351° |
| 2026-05-05 00:48 | 15.92858 | 108.21639 | 1880 ft | 217 kts | 352° |
| 2026-05-05 00:48 | 15.94354 | 108.21437 | 1665 ft | 217 kts | 352° |
| 2026-05-05 00:48 | 15.95848 | 108.21234 | 1464 ft | 216 kts | 352° |
| 2026-05-05 00:48 | 15.97334 | 108.21030 | 1185 ft | 215 kts | 352° |
| 2026-05-05 00:49 | 15.98810 | 108.20827 | 889 ft | 211 kts | 352° |
| 2026-05-05 00:49 | 16.00179 | 108.20636 | 614 ft | 187 kts | 352° |
| 2026-05-05 00:49 | 16.01390 | 108.20466 | 374 ft | 165 kts | 352° |
| 2026-05-05 00:49 | 16.02484 | 108.20311 | 152 ft | 152 kts | 352° |
| 2026-05-05 00:50 | 16.03502 | 108.20168 | 37 ft | 137 kts | 352° |
| 2026-05-05 00:50 | 16.04303 | 108.20054 | 33 ft | 92 kts | 352° |
| 2026-05-05 00:50 | 16.04784 | 108.19982 | 33 ft | 54 kts | 352° |
| 2026-05-05 00:50 | 16.05134 | 108.19930 | 33 ft | 45 kts | 352° |
| 2026-05-05 00:51 | 16.05397 | 108.19895 | 33 ft | 35 kts | 352° |
| 2026-05-05 00:51 | 16.05636 | 108.19858 | 31 ft | 35 kts | 351° |
| 2026-05-05 00:51 | 16.05739 | 108.19907 | 33 ft | 15 kts | 75° |
| 2026-05-05 00:51 | 16.05738 | 108.19996 | 34 ft | 7 kts | 144° |
| 2026-05-05 00:52 | 16.05693 | 108.20004 | 34 ft | 8 kts | 175° |
| 2026-05-05 00:52 | 16.05609 | 108.20011 | 34 ft | 17 kts | 175° |
| 2026-05-05 00:52 | 16.05473 | 108.20022 | 34 ft | 17 kts | 174° |
| 2026-05-05 00:52 | 16.05442 | 108.20098 | 32 ft | 12 kts | 83° |
| 2026-05-05 00:53 | 16.05448 | 108.20152 | 34 ft | 0 kts | 83° |